Terminal Aerodrome Forecast
Issued by NWS Billings, MT

Home | Current Version | Previous Version | Graphics & Text | Print | Product List | Glossary On
Versions: 1 2 3 4 5 6 7 8 9 10 11 12 13 14 15 16 17
000
FTUS45 KBYZ 241137
TAFMLS
TAF
KMLS 241137Z 2412/2512 VRB05KT P6SM VCSH BKN100
     FM241400 VRB05KT P6SM BKN070
     FM242100 05008KT P6SM VCTS BKN070CB
     FM250600 03009KT P6SM -SHRA OVC040
     FM250900 02007KT P6SM -SHRA SCT015 OVC030=

USA.gov is the U.S. government's official web portal to all federal, state and local government web resources and services.